Time;durP1;ratioP1;P1;durP2;ratioP2;P2;SDS_P1;SDS_P2;PMS_P1;PMS_P2;Temp;Humidity;BMP_temperature;BMP_pressure;BME280_temperature;BME280_humidity;BME280_pressure;Samples;Min_cycle;Max_cycle;Signal;HPM_P1;HPM_P2
2021/06/17 00:00:28;;;;;;;4.10;3.70;;;23.50;94.90;;;;;;5096112;28;20431;-55
2021/06/17 00:02:55;;;;;;;5.20;4.30;;;23.50;94.80;;;;;;5095575;28;20520;-59
2021/06/17 00:05:21;;;;;;;4.00;3.80;;;23.60;94.90;;;;;;5095713;28;20927;-59
2021/06/17 00:07:48;;;;;;;4.53;4.13;;;23.50;94.90;;;;;;5096314;28;20851;-59
2021/06/17 00:10:18;;;;;;;4.17;3.87;;;23.50;95.00;;;;;;5095729;28;20423;-59
2021/06/17 00:12:43;;;;;;;3.60;3.30;;;23.40;95.10;;;;;;5098350;28;20762;-59
2021/06/17 00:15:11;;;;;;;7.23;4.13;;;23.20;95.50;;;;;;5095531;28;20395;-58
2021/06/17 00:17:37;;;;;;;5.00;4.27;;;23.00;96.20;;;;;;5077232;28;20165;-60
2021/06/17 00:20:04;;;;;;;3.87;3.57;;;22.90;96.30;;;;;;5094325;28;20415;-60
2021/06/17 00:22:29;;;;;;;3.90;3.60;;;22.90;96.50;;;;;;5095163;28;20415;-60
2021/06/17 00:24:55;;;;;;;4.27;3.87;;;22.80;96.70;;;;;;5095741;28;20408;-60
2021/06/17 00:27:21;;;;;;;3.83;3.53;;;22.70;96.60;;;;;;5095072;28;20677;-60
2021/06/17 00:29:47;;;;;;;5.40;4.50;;;22.70;97.00;;;;;;5095245;28;20649;-60
2021/06/17 00:32:12;;;;;;;4.60;4.20;;;22.60;97.20;;;;;;5095104;28;20419;-58
2021/06/17 00:34:38;;;;;;;3.90;3.50;;;22.70;97.60;;;;;;5094681;28;20162;-59
2021/06/17 00:37:04;;;;;;;4.23;3.83;;;22.80;97.50;;;;;;5095014;28;20162;-58
2021/06/17 00:39:29;;;;;;;4.33;3.97;;;22.90;97.40;;;;;;5094965;28;20642;-56
2021/06/17 00:41:55;;;;;;;6.17;3.97;;;23.00;97.30;;;;;;5095142;28;20680;-57
2021/06/17 00:44:20;;;;;;;4.63;4.20;;;23.00;97.00;;;;;;5095422;28;20161;-59
2021/06/17 00:46:46;;;;;;;4.73;4.33;;;23.00;96.70;;;;;;5095019;28;20767;-59
2021/06/17 00:49:11;;;;;;;5.97;4.40;;;23.00;96.70;;;;;;5094236;28;20166;-59
2021/06/17 00:51:37;;;;;;;4.27;3.87;;;23.00;96.60;;;;;;5094557;28;20200;-59
2021/06/17 00:54:03;;;;;;;4.33;4.00;;;22.90;96.50;;;;;;5094781;28;20158;-59
2021/06/17 00:56:28;;;;;;;4.50;4.10;;;22.90;96.40;;;;;;5094618;28;20200;-59
2021/06/17 00:58:55;;;;;;;5.00;3.97;;;22.90;96.40;;;;;;5094625;28;20253;-58
2021/06/17 01:01:21;;;;;;;5.07;4.57;;;22.90;96.50;;;;;;5094359;28;20250;-57
2021/06/17 01:03:46;;;;;;;3.93;3.60;;;22.80;96.70;;;;;;5094585;28;20395;-59
2021/06/17 01:06:12;;;;;;;5.30;4.40;;;22.90;96.70;;;;;;5094534;28;20176;-60
2021/06/17 01:09:11;;;;;;;4.30;3.97;;;22.80;96.60;;;;;;5094685;28;20252;-57
2021/06/17 01:11:48;;;;;;;4.90;4.50;;;22.80;96.60;;;;;;5094742;28;20188;-56
2021/06/17 01:14:46;;;;;;;4.97;4.57;;;22.70;96.50;;;;;;5094386;28;20398;-55
2021/06/17 01:17:13;;;;;;;4.83;4.13;;;22.70;96.50;;;;;;5090356;28;20899;-58
2021/06/17 01:19:51;;;;;;;4.70;4.20;;;22.60;96.90;;;;;;5093596;28;20457;-56
2021/06/17 01:22:46;;;;;;;4.30;3.90;;;22.60;97.00;;;;;;5094327;28;20410;-56
2021/06/17 01:25:42;;;;;;;4.10;3.80;;;22.70;97.20;;;;;;5094350;28;20394;-56
2021/06/17 01:28:12;;;;;;;4.47;4.17;;;22.70;97.30;;;;;;5093996;28;20970;-58
2021/06/17 01:30:59;;;;;;;3.83;3.53;;;22.60;97.10;;;;;;5094334;28;20407;-58
2021/06/17 01:33:32;;;;;;;4.83;3.70;;;22.60;97.00;;;;;;5094032;28;20780;-57
2021/06/17 01:36:01;;;;;;;4.97;3.90;;;22.50;97.20;;;;;;5094222;28;20374;-58
2021/06/17 01:38:28;;;;;;;4.40;3.73;;;22.50;97.30;;;;;;5094083;28;20839;-56
2021/06/17 01:40:55;;;;;;;4.90;3.87;;;22.40;97.50;;;;;;5094101;28;20911;-58
2021/06/17 01:43:22;;;;;;;4.13;3.80;;;22.30;97.50;;;;;;5093994;28;20434;-58
2021/06/17 01:45:49;;;;;;;3.97;3.67;;;22.30;97.60;;;;;;5093740;28;20452;-58
2021/06/17 01:48:15;;;;;;;4.13;3.73;;;22.20;98.20;;;;;;5093410;28;20447;-58
2021/06/17 01:50:43;;;;;;;4.20;3.80;;;22.20;98.10;;;;;;5093627;28;20475;-58
2021/06/17 01:53:10;;;;;;;4.93;3.97;;;22.20;98.10;;;;;;5093503;28;20926;-59
2021/06/17 01:55:39;;;;;;;4.13;3.73;;;22.30;98.10;;;;;;5093579;28;20768;-58
2021/06/17 01:58:08;;;;;;;4.10;3.80;;;22.30;98.20;;;;;;5093829;28;20770;-59
2021/06/17 02:00:36;;;;;;;6.50;3.87;;;22.30;98.10;;;;;;5093459;28;20423;-58
2021/06/17 02:03:05;;;;;;;3.93;3.63;;;22.30;97.80;;;;;;5093456;28;20459;-58
2021/06/17 02:05:32;;;;;;;3.80;3.43;;;22.10;98.30;;;;;;5095839;28;20499;-57
2021/06/17 02:07:59;;;;;;;3.90;3.60;;;21.90;98.50;;;;;;5093241;28;20450;-58
2021/06/17 02:10:27;;;;;;;5.53;4.27;;;22.00;98.70;;;;;;5093558;28;20792;-58
2021/06/17 02:12:53;;;;;;;4.67;4.17;;;21.90;99.00;;;;;;5093272;28;20399;-55
2021/06/17 02:15:22;;;;;;;3.83;3.60;;;21.80;99.10;;;;;;5093582;28;20915;-55
2021/06/17 02:17:49;;;;;;;3.90;3.60;;;21.90;99.10;;;;;;5092903;28;20411;-58
2021/06/17 02:20:18;;;;;;;4.10;3.80;;;21.90;99.00;;;;;;5093080;28;20855;-59
2021/06/17 02:22:45;;;;;;;4.27;3.87;;;21.90;99.00;;;;;;5093241;28;20987;-58
2021/06/17 02:25:15;;;;;;;4.90;4.00;;;21.70;99.30;;;;;;5093506;28;20399;-58
2021/06/17 02:27:44;;;;;;;4.10;3.30;;;21.70;99.50;;;;;;5093176;28;20488;-58
2021/06/17 02:30:11;;;;;;;4.57;4.13;;;21.60;99.50;;;;;;5093322;28;20403;-57
2021/06/17 02:32:41;;;;;;;3.60;3.30;;;21.60;99.80;;;;;;5093146;28;20431;-57
2021/06/17 02:35:08;;;;;;;5.70;4.13;;;21.70;99.90;;;;;;5092675;28;20383;-58
2021/06/17 02:37:35;;;;;;;3.90;3.60;;;21.60;99.90;;;;;;5088779;28;20478;-56
2021/06/17 02:40:01;;;;;;;4.67;3.23;;;21.60;99.70;;;;;;5088419;28;20407;-57
2021/06/17 02:42:28;;;;;;;7.20;3.50;;;21.60;99.60;;;;;;5093743;28;20759;-57
2021/06/17 02:44:55;;;;;;;3.77;3.47;;;21.70;99.50;;;;;;5096196;28;20428;-59
2021/06/17 02:47:21;;;;;;;4.17;3.77;;;21.60;99.60;;;;;;5097399;28;20442;-57
2021/06/17 02:49:47;;;;;;;4.43;3.50;;;21.50;99.70;;;;;;5097110;28;20415;-57
2021/06/17 02:52:13;;;;;;;3.87;3.57;;;21.30;99.90;;;;;;5052765;22;20512;-56
2021/06/17 02:54:39;;;;;;;3.80;3.50;;;21.10;99.90;;;;;;5017120;28;20442;-55
2021/06/17 02:57:31;;;;;;;3.93;3.67;;;21.10;99.90;;;;;;5016936;28;20427;-56
2021/06/17 03:00:10;;;;;;;5.77;3.90;;;21.10;99.90;;;;;;5016960;28;20160;-55
2021/06/17 03:02:59;;;;;;;4.40;3.50;;;21.20;99.90;;;;;;5016676;28;20801;-53
2021/06/17 03:05:30;;;;;;;5.17;4.30;;;21.10;99.90;;;;;;5016541;28;20394;-57
2021/06/17 03:08:13;;;;;;;4.83;4.10;;;21.00;99.90;;;;;;5016947;28;20439;-55
2021/06/17 03:10:40;;;;;;;5.30;3.70;;;21.00;99.90;;;;;;5016583;28;20972;-57
2021/06/17 03:13:08;;;;;;;4.77;4.37;;;20.90;99.90;;;;;;5016791;28;20403;-57
2021/06/17 03:15:36;;;;;;;4.17;3.83;;;20.90;99.90;;;;;;5016541;28;20400;-57
2021/06/17 03:18:04;;;;;;;4.57;4.00;;;21.00;99.90;;;;;;5018362;28;20442;-57
2021/06/17 03:20:33;;;;;;;4.10;3.80;;;21.00;99.90;;;;;;5035949;28;20409;-57
2021/06/17 03:23:04;;;;;;;3.93;3.60;;;21.10;99.90;;;;;;5036133;28;20440;-57
2021/06/17 03:25:30;;;;;;;4.40;4.00;;;21.00;99.90;;;;;;5036476;28;20448;-57
2021/06/17 03:27:58;;;;;;;4.30;3.90;;;21.00;99.90;;;;;;5036291;28;20449;-55
2021/06/17 03:30:28;;;;;;;4.50;4.03;;;21.00;99.90;;;;;;5035941;28;20711;-57
2021/06/17 03:32:58;;;;;;;4.43;4.00;;;21.00;99.90;;;;;;5020107;28;20418;-53
2021/06/17 03:35:28;;;;;;;4.97;4.50;;;20.90;99.90;;;;;;5016335;28;20743;-55
2021/06/17 03:37:54;;;;;;;4.50;3.70;;;20.80;99.90;;;;;;5016138;28;20421;-55
2021/06/17 03:40:20;;;;;;;3.83;3.53;;;20.70;99.90;;;;;;5016035;28;20757;-57
2021/06/17 03:42:47;;;;;;;4.60;3.90;;;20.60;99.90;;;;;;5016358;28;20410;-56
2021/06/17 03:45:14;;;;;;;4.90;3.80;;;20.60;99.90;;;;;;5016276;28;20255;-57
2021/06/17 03:47:46;;;;;;;5.57;4.00;;;20.70;99.90;;;;;;5016185;28;20483;-55
2021/06/17 03:50:14;;;;;;;7.90;4.43;;;20.80;99.90;;;;;;4996344;28;20420;-57
2021/06/17 03:52:52;;;;;;;4.13;3.73;;;20.80;99.90;;;;;;4996280;28;20443;-56
2021/06/17 03:55:18;;;;;;;4.27;3.70;;;20.80;99.90;;;;;;4995334;28;20388;-57
2021/06/17 03:57:49;;;;;;;4.20;3.80;;;20.80;99.90;;;;;;4996759;28;20420;-55
2021/06/17 04:00:16;;;;;;;4.10;3.60;;;20.90;99.90;;;;;;4996094;28;20408;-55
2021/06/17 04:02:43;;;;;;;4.53;3.80;;;20.70;99.90;;;;;;5019387;28;20421;-56
2021/06/17 04:05:10;;;;;;;4.93;4.30;;;20.60;99.90;;;;;;5035610;28;20413;-56
2021/06/17 04:07:39;;;;;;;4.27;3.87;;;20.60;99.90;;;;;;5035562;28;20473;-53
2021/06/17 04:10:06;;;;;;;4.10;3.77;;;20.60;99.90;;;;;;5035550;28;20406;-55
2021/06/17 04:12:33;;;;;;;4.13;3.77;;;20.70;99.90;;;;;;5025380;28;20514;-53
2021/06/17 04:15:01;;;;;;;4.43;4.07;;;20.70;99.90;;;;;;5015581;28;20399;-55
2021/06/17 04:17:31;;;;;;;4.83;4.17;;;20.70;99.90;;;;;;5015161;28;20428;-55
2021/06/17 04:19:59;;;;;;;6.87;4.83;;;20.80;99.90;;;;;;5015309;28;20498;-53
2021/06/17 04:22:26;;;;;;;5.60;4.50;;;20.80;99.90;;;;;;5014758;28;20423;-56
2021/06/17 04:24:56;;;;;;;4.27;3.97;;;21.10;99.90;;;;;;5015501;28;20830;-57
2021/06/17 04:27:23;;;;;;;4.13;3.83;;;21.20;99.90;;;;;;5015159;28;20903;-51
2021/06/17 04:29:51;;;;;;;4.07;3.77;;;21.40;99.90;;;;;;5015091;28;20399;-53
2021/06/17 04:32:17;;;;;;;4.90;4.50;;;21.40;99.90;;;;;;5023322;28;20509;-53
2021/06/17 04:34:43;;;;;;;6.47;4.37;;;21.40;99.90;;;;;;5034884;28;20540;-55
2021/06/17 04:37:13;;;;;;;4.43;4.03;;;21.50;99.90;;;;;;5034836;28;20182;-56
2021/06/17 04:39:40;;;;;;;5.00;4.10;;;21.30;99.90;;;;;;5034945;28;20492;-56
2021/06/17 04:42:08;;;;;;;5.70;4.50;;;21.20;99.90;;;;;;5034686;28;20430;-55
2021/06/17 04:44:39;;;;;;;5.07;4.67;;;21.30;99.90;;;;;;5034882;28;20456;-55
2021/06/17 04:47:06;;;;;;;6.23;4.80;;;21.30;99.90;;;;;;5034598;28;20433;-52
2021/06/17 04:49:34;;;;;;;4.67;4.27;;;21.20;99.90;;;;;;5034689;28;20501;-56
2021/06/17 04:52:03;;;;;;;5.20;4.33;;;21.20;99.90;;;;;;5034097;28;20470;-55
2021/06/17 04:54:28;;;;;;;5.03;4.50;;;21.20;99.90;;;;;;5034299;28;20501;-54
2021/06/17 04:56:55;;;;;;;4.90;4.50;;;21.20;99.90;;;;;;5034468;28;20438;-55
2021/06/17 04:59:20;;;;;;;4.80;4.40;;;21.20;99.90;;;;;;5034701;28;20179;-56
2021/06/17 05:01:46;;;;;;;5.10;4.63;;;21.20;99.90;;;;;;5034252;28;20848;-56
2021/06/17 05:04:11;;;;;;;4.47;4.07;;;21.50;99.90;;;;;;5034111;28;20661;-55
2021/06/17 05:06:41;;;;;;;5.20;4.47;;;21.70;99.90;;;;;;5033831;28;20175;-57
2021/06/17 05:11:52;;;;;;;4.80;4.40;;;21.90;99.90;;;;;;5034364;28;20937;-57
2021/06/17 05:14:21;;;;;;;5.70;4.90;;;22.10;99.90;;;;;;5034047;28;20460;-52
2021/06/17 05:16:47;;;;;;;5.10;4.70;;;22.20;99.90;;;;;;5033998;28;20402;-57
2021/06/17 05:19:14;;;;;;;4.53;4.13;;;22.30;99.90;;;;;;5033575;28;20406;-57
2021/06/17 05:21:42;;;;;;;4.70;4.30;;;22.40;99.90;;;;;;5033713;28;20222;-56
2021/06/17 05:24:08;;;;;;;5.80;4.93;;;22.60;99.90;;;;;;5034078;28;20406;-57
2021/06/17 05:26:34;;;;;;;4.80;4.40;;;22.70;99.90;;;;;;5033584;28;20945;-55
2021/06/17 05:29:00;;;;;;;5.37;4.97;;;22.80;99.90;;;;;;5033059;28;20171;-58
2021/06/17 05:31:26;;;;;;;5.17;4.70;;;22.90;99.90;;;;;;5005319;28;20437;-55
2021/06/17 05:33:52;;;;;;;6.80;5.50;;;23.00;99.90;;;;;;5033360;28;20166;-56
2021/06/17 05:36:17;;;;;;;5.40;4.90;;;23.10;99.90;;;;;;5023157;28;20403;-57
2021/06/17 05:38:44;;;;;;;5.37;4.87;;;23.30;99.90;;;;;;5013645;28;20202;-53
2021/06/17 05:41:10;;;;;;;4.63;4.23;;;23.30;99.90;;;;;;5013693;28;20234;-57
2021/06/17 05:43:36;;;;;;;4.97;4.57;;;23.40;99.90;;;;;;5013959;28;20399;-57
2021/06/17 05:46:02;;;;;;;4.70;4.30;;;23.60;99.90;;;;;;5013725;28;20401;-55
2021/06/17 05:48:29;;;;;;;5.50;5.00;;;23.80;99.90;;;;;;5012764;28;20187;-52
2021/06/17 05:50:56;;;;;;;5.53;4.67;;;23.90;99.90;;;;;;5012937;28;20196;-50
2021/06/17 05:53:21;;;;;;;4.77;4.37;;;23.90;99.90;;;;;;5013844;28;20847;-57
2021/06/17 05:55:47;;;;;;;7.07;5.50;;;23.90;99.90;;;;;;5013353;28;20494;-55
2021/06/17 05:58:13;;;;;;;5.27;4.87;;;24.00;99.90;;;;;;5013714;28;20259;-57
2021/06/17 06:00:40;;;;;;;4.60;4.10;;;24.20;99.90;;;;;;5013269;28;20196;-56
2021/06/17 06:03:05;;;;;;;4.10;3.80;;;24.40;99.90;;;;;;5028104;28;20424;-57
2021/06/17 06:05:31;;;;;;;4.50;4.10;;;24.60;99.90;;;;;;5033141;28;20497;-56
2021/06/17 06:08:02;;;;;;;4.20;3.80;;;24.70;99.90;;;;;;5033210;28;20191;-57
2021/06/17 06:10:28;;;;;;;4.87;4.47;;;24.80;99.90;;;;;;5033199;28;20240;-57
2021/06/17 06:12:54;;;;;;;4.97;4.33;;;24.90;99.90;;;;;;5033001;28;20891;-55
2021/06/17 06:15:20;;;;;;;5.43;4.57;;;25.10;99.50;;;;;;5032923;28;20410;-55
2021/06/17 06:17:46;;;;;;;4.53;4.13;;;25.00;98.50;;;;;;5032141;28;20259;-57
2021/06/17 06:20:12;;;;;;;5.90;4.40;;;25.20;99.30;;;;;;5032476;28;20191;-57
2021/06/17 06:22:38;;;;;;;4.90;4.50;;;25.30;99.70;;;;;;5020036;28;20218;-56
2021/06/17 06:25:05;;;;;;;4.67;4.27;;;25.40;99.50;;;;;;5013779;28;20410;-57
2021/06/17 06:27:30;;;;;;;4.23;3.83;;;25.50;99.40;;;;;;5013319;28;20273;-55
2021/06/17 06:30:00;;;;;;;4.43;3.77;;;25.70;99.50;;;;;;5013507;28;20834;-54
2021/06/17 06:32:26;;;;;;;5.87;4.53;;;25.80;99.20;;;;;;5023695;28;20675;-58
2021/06/17 06:34:51;;;;;;;3.77;3.47;;;25.90;99.40;;;;;;5032809;28;20425;-55
2021/06/17 06:37:17;;;;;;;4.33;4.03;;;26.10;98.70;;;;;;5032794;28;20517;-57
2021/06/17 06:39:42;;;;;;;4.00;3.57;;;26.20;98.80;;;;;;5032589;28;20171;-54
2021/06/17 06:42:08;;;;;;;5.20;3.67;;;26.30;98.70;;;;;;5031439;28;20617;-53
2021/06/17 06:44:34;;;;;;;8.30;7.50;;;26.30;98.90;;;;;;5032800;28;20176;-56
2021/06/17 06:46:59;;;;;;;6.53;5.80;;;26.40;98.30;;;;;;5032663;28;20278;-58
2021/06/17 06:49:25;;;;;;;5.63;5.00;;;26.50;97.30;;;;;;5032571;28;20175;-55
2021/06/17 06:51:52;;;;;;;4.77;4.07;;;26.60;97.20;;;;;;5032944;28;20207;-57
2021/06/17 06:54:20;;;;;;;6.60;4.60;;;26.80;96.80;;;;;;5032467;28;20402;-57
2021/06/17 06:56:47;;;;;;;4.70;4.30;;;26.80;95.30;;;;;;5032837;28;20910;-57
2021/06/17 06:59:13;;;;;;;5.47;3.90;;;26.90;94.60;;;;;;5032451;28;20589;-57
2021/06/17 07:01:39;;;;;;;5.60;3.50;;;27.00;95.50;;;;;;5032210;28;20531;-57
2021/06/17 07:04:05;;;;;;;5.70;4.17;;;27.20;95.40;;;;;;5032137;28;20182;-57
2021/06/17 07:06:31;;;;;;;3.90;3.40;;;27.30;95.30;;;;;;5032488;28;20254;-54
2021/06/17 07:08:56;;;;;;;3.70;3.40;;;27.30;93.40;;;;;;5032771;28;20449;-57
2021/06/17 07:11:22;;;;;;;6.17;3.67;;;27.10;92.00;;;;;;5032967;28;20436;-57
2021/06/17 07:13:49;;;;;;;3.90;3.20;;;27.00;92.60;;;;;;5032762;28;20175;-57
2021/06/17 07:16:14;;;;;;;4.67;3.53;;;27.20;92.70;;;;;;5032482;28;20679;-57
2021/06/17 07:18:40;;;;;;;6.17;4.53;;;27.30;93.00;;;;;;5031960;28;20402;-57
2021/06/17 07:21:06;;;;;;;6.80;4.23;;;27.60;92.90;;;;;;5032448;28;20202;-58
2021/06/17 07:23:33;;;;;;;8.13;4.60;;;27.60;91.90;;;;;;5032447;28;20171;-56
2021/06/17 07:25:59;;;;;;;5.10;3.80;;;27.60;93.10;;;;;;5014313;28;20188;-58
2021/06/17 07:28:25;;;;;;;4.30;3.47;;;27.50;92.10;;;;;;5012469;28;20549;-58
2021/06/17 07:30:51;;;;;;;4.03;3.30;;;27.60;91.60;;;;;;5015267;28;20465;-58
2021/06/17 07:33:16;;;;;;;4.93;3.77;;;27.70;92.20;;;;;;5033419;28;20579;-54
2021/06/17 07:35:42;;;;;;;10.50;3.97;;;27.90;92.50;;;;;;5036013;28;20167;-57
2021/06/17 07:38:08;;;;;;;6.30;4.40;;;28.10;91.80;;;;;;5035962;28;20274;-54
2021/06/17 07:40:34;;;;;;;7.70;4.40;;;28.20;92.90;;;;;;5035949;28;20190;-57
2021/06/17 07:43:00;;;;;;;5.47;4.13;;;28.10;91.50;;;;;;5036005;28;20167;-57
2021/06/17 07:45:29;;;;;;;4.63;3.97;;;28.00;91.80;;;;;;5035711;28;20411;-57
2021/06/17 07:47:55;;;;;;;3.60;3.30;;;28.20;92.00;;;;;;5034857;28;20198;-55
2021/06/17 07:50:21;;;;;;;6.70;3.70;;;28.30;91.30;;;;;;5035240;28;20402;-55
2021/06/17 07:52:47;;;;;;;5.77;3.70;;;28.30;90.60;;;;;;5035479;28;20250;-55
2021/06/17 07:55:13;;;;;;;7.33;4.43;;;28.20;90.60;;;;;;5035432;28;20488;-54
2021/06/17 07:57:38;;;;;;;10.87;3.80;;;27.90;90.70;;;;;;5036150;28;20215;-54
2021/06/17 08:00:06;;;;;;;7.37;4.40;;;28.10;90.50;;;;;;5035312;28;20179;-55
2021/06/17 08:02:32;;;;;;;5.13;3.40;;;28.10;90.40;;;;;;5034673;28;20190;-57
2021/06/17 08:04:57;;;;;;;5.57;4.00;;;28.20;90.90;;;;;;5035630;28;20459;-57
2021/06/17 08:07:23;;;;;;;5.63;3.77;;;28.30;91.10;;;;;;5034978;28;20206;-57
2021/06/17 08:09:49;;;;;;;3.93;3.60;;;28.70;90.30;;;;;;5035501;28;20176;-57
2021/06/17 08:12:14;;;;;;;7.47;3.83;;;29.10;89.90;;;;;;5033896;28;20706;-57
2021/06/17 08:14:40;;;;;;;4.93;3.50;;;29.00;91.10;;;;;;5035297;28;20171;-57
2021/06/17 08:17:06;;;;;;;4.53;4.10;;;28.90;90.10;;;;;;5029678;28;20172;-55
2021/06/17 08:19:32;;;;;;;5.37;3.70;;;29.20;89.30;;;;;;5015353;28;20274;-57
2021/06/17 08:21:59;;;;;;;4.87;3.87;;;29.30;90.30;;;;;;5014082;28;20199;-58
2021/06/17 08:24:26;;;;;;;5.40;3.90;;;29.50;89.30;;;;;;5011514;28;20415;-56
2021/06/17 08:26:52;;;;;;;6.00;3.80;;;29.40;88.60;;;;;;5015135;28;20450;-56
2021/06/17 08:29:18;;;;;;;4.33;3.67;;;29.40;88.50;;;;;;5013774;28;20522;-57
2021/06/17 08:31:43;;;;;;;3.77;3.10;;;29.40;87.60;;;;;;5020207;28;20702;-57
2021/06/17 08:34:11;;;;;;;3.73;3.40;;;29.40;85.00;;;;;;5034515;28;20717;-57
2021/06/17 08:36:37;;;;;;;3.93;3.27;;;29.40;84.90;;;;;;5033537;28;20174;-56
2021/06/17 08:39:03;;;;;;;4.30;3.50;;;29.40;85.90;;;;;;5034688;28;20418;-56
2021/06/17 08:41:30;;;;;;;4.80;3.40;;;29.50;86.00;;;;;;5022029;28;20445;-57
2021/06/17 08:43:55;;;;;;;4.03;3.60;;;29.70;83.40;;;;;;5014881;28;20422;-57
2021/06/17 08:46:21;;;;;;;3.77;3.37;;;29.80;83.40;;;;;;5014576;28;20403;-57
2021/06/17 08:48:48;;;;;;;6.00;3.30;;;30.00;83.10;;;;;;5014535;28;20223;-58
2021/06/17 08:51:14;;;;;;;5.30;3.77;;;30.10;83.50;;;;;;5044461;23;20213;-57
2021/06/17 08:53:40;;;;;;;3.97;3.67;;;30.00;84.00;;;;;;5055037;28;20417;-54
2021/06/17 08:56:05;;;;;;;4.00;3.17;;;30.00;83.00;;;;;;5055135;28;20404;-56
2021/06/17 08:58:31;;;;;;;3.93;3.53;;;30.20;86.00;;;;;;5054928;28;20288;-56
2021/06/17 09:00:57;;;;;;;5.67;3.43;;;30.20;84.10;;;;;;5054807;28;20159;-53
2021/06/17 09:03:22;;;;;;;5.00;3.90;;;30.00;81.70;;;;;;5053270;28;20225;-55
2021/06/17 09:05:53;;;;;;;4.33;3.60;;;30.20;83.10;;;;;;5054558;28;20166;-55
2021/06/17 09:08:27;;;;;;;4.53;3.83;;;30.30;85.90;;;;;;5056989;28;20608;-54
2021/06/17 09:10:54;;;;;;;3.50;3.23;;;30.40;86.00;;;;;;5057319;28;20439;-51
2021/06/17 09:13:21;;;;;;;4.60;4.03;;;30.50;86.70;;;;;;5056131;28;20405;-58
2021/06/17 09:15:52;;;;;;;5.20;3.40;;;30.50;83.60;;;;;;5054675;28;20405;-56
2021/06/17 09:18:21;;;;;;;3.50;3.07;;;30.50;84.20;;;;;;5068396;28;20416;-56
2021/06/17 09:20:55;;;;;;;6.13;4.43;;;30.70;84.10;;;;;;5074301;28;20400;-56
2021/06/17 09:23:26;;;;;;;9.20;3.90;;;30.90;83.20;;;;;;5073995;28;20430;-56
2021/06/17 09:26:01;;;;;;;5.27;3.73;;;31.10;81.50;;;;;;5074123;28;20759;-56
2021/06/17 09:28:43;;;;;;;5.10;3.70;;;31.40;81.40;;;;;;5074339;28;20924;-56
2021/06/17 09:31:17;;;;;;;4.70;4.30;;;31.40;80.80;;;;;;5058318;28;20407;-57
2021/06/17 09:33:45;;;;;;;7.23;4.90;;;31.40;82.30;;;;;;5062072;28;20405;-58
2021/06/17 09:36:11;;;;;;;7.03;4.03;;;31.60;83.10;;;;;;5053931;28;20448;-55
2021/06/17 09:39:18;;;;;;;5.63;3.83;;;31.50;79.80;;;;;;5053939;28;20902;-56
2021/06/17 09:41:46;;;;;;;4.20;3.80;;;31.60;78.30;;;;;;5053822;28;20447;-56
2021/06/17 09:44:31;;;;;;;6.63;5.03;;;31.70;75.40;;;;;;5053881;28;20405;-57
2021/06/17 09:47:09;;;;;;;5.63;4.57;;;31.80;77.40;;;;;;5053483;28;20484;-58
2021/06/17 09:49:35;;;;;;;6.70;4.77;;;31.80;76.20;;;;;;5053284;28;20409;-57
2021/06/17 09:52:01;;;;;;;6.50;4.43;;;31.60;76.10;;;;;;5053568;28;20444;-58
2021/06/17 09:54:29;;;;;;;6.00;4.80;;;31.50;76.30;;;;;;5052973;28;20454;-57
2021/06/17 09:57:01;;;;;;;6.27;5.30;;;31.60;76.30;;;;;;5053523;28;20409;-58
2021/06/17 09:59:37;;;;;;;7.53;5.10;;;31.70;76.10;;;;;;5053700;28;20431;-56
2021/06/17 10:02:05;;;;;;;10.77;6.37;;;31.80;77.50;;;;;;5052599;28;20789;-54
2021/06/17 10:04:31;;;;;;;6.17;4.77;;;31.80;77.10;;;;;;5052948;28;20413;-54
2021/06/17 10:06:57;;;;;;;4.90;4.23;;;31.70;78.30;;;;;;5053383;28;20456;-55
2021/06/17 10:09:23;;;;;;;6.77;5.00;;;31.60;75.70;;;;;;5051600;28;20932;-55
2021/06/17 10:11:50;;;;;;;10.17;4.90;;;31.50;74.60;;;;;;5053071;28;20425;-55
2021/06/17 10:14:16;;;;;;;8.13;5.67;;;31.70;75.20;;;;;;5053623;28;20397;-53
2021/06/17 10:16:43;;;;;;;4.97;4.37;;;32.00;73.70;;;;;;5054952;28;20920;-54
2021/06/17 10:19:14;;;;;;;6.70;4.70;;;31.90;73.20;;;;;;5073168;28;20432;-54
2021/06/17 10:21:41;;;;;;;5.13;4.20;;;31.60;72.10;;;;;;5073110;28;20515;-52
2021/06/17 10:24:16;;;;;;;10.03;4.00;;;31.70;73.30;;;;;;5073071;28;20408;-50
2021/06/17 10:26:46;;;;;;;4.70;4.20;;;31.80;72.60;;;;;;5073179;28;20772;-56
2021/06/17 10:29:27;;;;;;;5.17;4.37;;;31.90;71.10;;;;;;5072961;28;20893;-53
2021/06/17 10:31:54;;;;;;;4.20;3.80;;;31.90;71.50;;;;;;5060772;28;20439;-56
2021/06/17 10:34:22;;;;;;;7.97;4.60;;;32.20;70.70;;;;;;5055626;28;20464;-56
2021/06/17 10:37:36;;;;;;;6.47;4.67;;;32.00;71.30;;;;;;5052941;28;20393;-54
2021/06/17 10:40:10;;;;;;;6.57;4.37;;;32.00;72.40;;;;;;5024119;28;20781;-54
2021/06/17 10:42:37;;;;;;;6.23;5.60;;;32.30;72.20;;;;;;5033134;28;20432;-51
2021/06/17 10:45:06;;;;;;;8.30;5.27;;;32.30;73.10;;;;;;5033505;28;20398;-55
2021/06/17 10:50:19;;;;;;;5.13;4.60;;;32.50;71.20;;;;;;5045859;28;20404;-53
2021/06/17 10:52:46;;;;;;;4.83;4.30;;;32.60;71.00;;;;;;5072647;28;20441;-54
2021/06/17 10:55:14;;;;;;;8.40;4.97;;;32.40;70.70;;;;;;5072889;28;20416;-52
2021/06/17 10:57:43;;;;;;;4.73;4.30;;;32.40;70.40;;;;;;5073311;28;20414;-53
2021/06/17 11:02:55;;;;;;;6.03;4.50;;;32.70;69.90;;;;;;5073181;28;20415;-55
2021/06/17 11:05:36;;;;;;;8.20;5.37;;;32.90;68.70;;;;;;5074910;28;20799;-52
2021/06/17 11:10:57;;;;;;;5.07;4.67;;;32.60;70.40;;;;;;5056658;28;20393;-61
2021/06/17 11:13:37;;;;;;;7.00;4.50;;;32.70;68.40;;;;;;5038813;28;20405;-58
2021/06/17 11:16:13;;;;;;;7.70;5.40;;;33.00;68.60;;;;;;5056969;28;20409;-59
2021/06/17 11:21:30;;;;;;;4.30;3.90;;;33.40;67.80;;;;;;5056154;28;20401;-60
2021/06/17 11:24:02;;;;;;;5.20;4.80;;;33.40;67.40;;;;;;5056436;28;20962;-58
2021/06/17 11:26:40;;;;;;;5.50;5.00;;;33.40;67.00;;;;;;5061779;28;20737;-61
2021/06/17 11:29:20;;;;;;;6.73;4.90;;;33.50;66.70;;;;;;5076140;28;20404;-61
2021/06/17 11:31:52;;;;;;;6.33;5.00;;;33.50;66.90;;;;;;5076253;28;20505;-59
2021/06/17 11:34:31;;;;;;;5.10;4.60;;;34.50;64.00;;;;;;5075706;28;20404;-60
2021/06/17 11:37:00;;;;;;;4.70;4.30;;;36.00;60.50;;;;;;5076071;28;20487;-60
2021/06/17 11:39:28;;;;;;;4.90;4.40;;;37.30;56.60;;;;;;5057963;28;20416;-59
2021/06/17 11:41:56;;;;;;;5.70;4.23;;;38.00;57.30;;;;;;5056309;28;20413;-61
2021/06/17 11:44:25;;;;;;;4.50;4.13;;;38.40;53.40;;;;;;5056263;28;20451;-61
2021/06/17 11:47:11;;;;;;;4.97;4.50;;;37.70;54.20;;;;;;5056190;28;20393;-60
2021/06/17 11:49:40;;;;;;;5.03;4.33;;;38.20;52.70;;;;;;5055965;28;20389;-53
2021/06/17 11:52:16;;;;;;;5.43;4.33;;;38.60;53.50;;;;;;5055895;28;20510;-58
2021/06/17 11:54:44;;;;;;;6.33;4.03;;;39.80;49.50;;;;;;5055898;28;20436;-58
2021/06/17 11:57:11;;;;;;;4.80;4.33;;;39.70;49.20;;;;;;5056182;28;20504;-58
2021/06/17 11:59:38;;;;;;;5.10;4.40;;;40.50;47.50;;;;;;5056185;28;20404;-58
2021/06/17 12:02:22;;;;;;;5.30;3.87;;;39.80;47.80;;;;;;5054710;28;20432;-59
2021/06/17 12:04:59;;;;;;;4.57;4.17;;;41.10;48.00;;;;;;5055250;28;20397;-58
2021/06/17 12:07:34;;;;;;;5.10;4.23;;;41.10;45.20;;;;;;5037739;28;20436;-59
2021/06/17 12:10:13;;;;;;;5.17;4.67;;;41.40;44.60;;;;;;5055817;28;20396;-57
2021/06/17 12:12:50;;;;;;;4.73;4.33;;;40.40;44.70;;;;;;5055432;28;20416;-59
2021/06/17 12:15:37;;;;;;;4.40;4.10;;;40.60;44.50;;;;;;5055442;28;20865;-57
2021/06/17 12:18:14;;;;;;;4.40;4.03;;;41.20;43.60;;;;;;5053587;28;20421;-56
2021/06/17 12:20:42;;;;;;;4.80;4.40;;;40.30;43.60;;;;;;5055920;28;20381;-54
2021/06/17 12:23:14;;;;;;;4.13;3.83;;;40.30;44.60;;;;;;5055541;28;20428;-56
2021/06/17 12:25:46;;;;;;;4.63;4.10;;;40.80;45.40;;;;;;5055813;28;20404;-54
2021/06/17 12:28:14;;;;;;;4.83;4.33;;;41.10;43.20;;;;;;5074711;28;20439;-59
2021/06/17 12:30:40;;;;;;;4.37;3.93;;;41.70;43.50;;;;;;5075075;28;20403;-57
2021/06/17 12:33:09;;;;;;;6.17;4.20;;;42.40;42.00;;;;;;5060550;28;20425;-58
2021/06/17 12:35:41;;;;;;;4.80;4.40;;;42.20;41.80;;;;;;5056380;28;20667;-58
2021/06/17 12:38:08;;;;;;;4.70;3.90;;;41.80;43.10;;;;;;5055877;28;20817;-57
2021/06/17 12:40:39;;;;;;;4.50;3.93;;;42.10;42.60;;;;;;5054783;28;20415;-57
2021/06/17 12:43:22;;;;;;;4.07;3.73;;;42.80;40.70;;;;;;5055024;28;20424;-59
2021/06/17 12:46:08;;;;;;;5.03;4.40;;;42.80;40.80;;;;;;5054959;28;20389;-57
2021/06/17 12:54:01;;;;;;;7.87;4.17;;;43.90;38.70;;;;;;5055018;28;20377;-59
2021/06/17 12:56:27;;;;;;;5.95;3.97;;;44.70;38.60;;;;;;5054650;28;20639;-58
2021/06/17 12:58:53;;;;;;;5.43;4.10;;;45.10;36.40;;;;;;5055293;28;20227;-58
2021/06/17 13:01:22;;;;;;;5.73;4.07;;;42.90;38.10;;;;;;5054630;28;20186;-59
2021/06/17 13:03:50;;;;;;;5.63;4.30;;;41.60;39.60;;;;;;5054399;28;20443;-57
2021/06/17 13:06:36;;;;;;;6.17;4.47;;;41.90;39.80;;;;;;5054630;28;20411;-58
2021/06/17 13:09:03;;;;;;;5.20;4.03;;;42.40;39.30;;;;;;5054592;28;20463;-58
2021/06/17 13:11:31;;;;;;;4.33;3.93;;;41.80;39.70;;;;;;5054449;28;20202;-58
2021/06/17 13:14:05;;;;;;;4.20;3.80;;;42.40;39.80;;;;;;5054253;28;20241;-58